createdAt,value
2024-01-16T00:00:00.499Z,6.4
2024-01-16T00:05:00.471Z,4.6
2024-01-16T00:10:00.473Z,5.1
2024-01-16T00:15:00.478Z,9.0
2024-01-16T00:20:00.461Z,5.6
2024-01-16T00:25:00.613Z,5.0
2024-01-16T00:30:00.449Z,5.9
2024-01-16T00:35:00.462Z,4.9
2024-01-16T00:40:00.495Z,7.3
2024-01-16T00:45:00.467Z,5.9
2024-01-16T00:50:00.493Z,4.7
2024-01-16T00:55:00.472Z,4.8
2024-01-16T01:00:00.457Z,4.4
2024-01-16T01:05:00.583Z,4.2
2024-01-16T01:10:00.474Z,3.7
2024-01-16T01:15:00.568Z,4.4
2024-01-16T01:20:00.445Z,4.9
2024-01-16T01:25:00.457Z,4.7
2024-01-16T01:30:00.506Z,4.5
2024-01-16T01:35:00.446Z,4.1
2024-01-16T01:40:00.463Z,3.4
2024-01-16T01:45:00.590Z,6.9
2024-01-16T01:50:00.446Z,5.4
2024-01-16T01:55:00.444Z,4.1
2024-01-16T02:00:00.487Z,6.7
2024-01-16T02:05:00.468Z,3.7
2024-01-16T02:10:00.445Z,12.1
2024-01-16T02:15:00.434Z,8.7
2024-01-16T02:20:00.447Z,7.3
2024-01-16T02:25:00.436Z,5.1
2024-01-16T02:30:00.492Z,5.7
2024-01-16T02:35:00.434Z,6.9
2024-01-16T02:40:00.451Z,7.0
2024-01-16T02:45:00.461Z,7.7
2024-01-16T02:50:00.456Z,8.1
2024-01-16T02:55:00.464Z,7.8
2024-01-16T03:00:00.487Z,9.1
2024-01-16T03:05:00.474Z,7.9
2024-01-16T03:10:00.449Z,8.7
2024-01-16T03:15:00.448Z,7.5
2024-01-16T03:20:00.455Z,7.4
2024-01-16T03:25:00.444Z,8.1
2024-01-16T03:30:00.597Z,7.1
2024-01-16T03:35:00.460Z,8.8
2024-01-16T03:40:00.474Z,7.5
2024-01-16T03:45:00.511Z,6.7
2024-01-16T03:50:00.455Z,9.5
2024-01-16T03:55:00.450Z,6.7
2024-01-16T04:00:00.492Z,8.7
2024-01-16T04:05:00.493Z,6.6
2024-01-16T04:10:00.480Z,9.8
2024-01-16T04:15:00.482Z,7.1
2024-01-16T04:20:00.450Z,9.3
2024-01-16T04:25:00.445Z,10.7
2024-01-16T04:30:00.470Z,7.2
2024-01-16T04:35:00.492Z,6.8
2024-01-16T04:40:00.453Z,7.5
2024-01-16T04:45:00.446Z,6.5
2024-01-16T04:50:00.525Z,4.2
2024-01-16T04:55:00.453Z,6.1
2024-01-16T05:00:00.531Z,5.8
2024-01-16T05:05:00.533Z,6.4
2024-01-16T05:10:00.471Z,6.3
2024-01-16T05:15:00.453Z,6.2
2024-01-16T05:20:00.450Z,4.8
2024-01-16T05:25:00.468Z,3.4
2024-01-16T05:30:00.568Z,5.1
2024-01-16T05:35:00.448Z,5.2
2024-01-16T05:40:00.454Z,3.5
2024-01-16T05:45:00.487Z,2.7
2024-01-16T05:50:00.730Z,3.2
2024-01-16T05:55:00.443Z,3.8
2024-01-16T06:00:00.461Z,1.8
2024-01-16T06:05:00.463Z,2.7
2024-01-16T06:10:00.450Z,1.2
2024-01-16T06:15:00.518Z,1.7
2024-01-16T06:20:00.519Z,2.9
2024-01-16T06:25:00.440Z,2.1
2024-01-16T06:30:00.612Z,5.1
2024-01-16T06:35:00.441Z,4.1
2024-01-16T06:40:00.458Z,3.5
2024-01-16T06:45:00.541Z,1.4
2024-01-16T06:50:00.470Z,2.5
2024-01-16T06:55:00.454Z,3.6
2024-01-16T07:00:00.808Z,4.5
2024-01-16T07:05:00.991Z,4.6
2024-01-16T07:10:00.450Z,5.2
2024-01-16T07:15:00.474Z,5.0
2024-01-16T07:20:00.430Z,2.1
2024-01-16T07:25:00.434Z,3.1
2024-01-16T07:30:00.463Z,4.2
2024-01-16T07:35:00.422Z,1.5
2024-01-16T07:40:00.470Z,4.2
2024-01-16T07:45:00.421Z,2.4
2024-01-16T07:50:00.426Z,2.9
2024-01-16T07:55:00.444Z,3.3
2024-01-16T08:00:00.546Z,7.4
2024-01-16T08:05:00.419Z,2.6
2024-01-16T08:10:00.424Z,5.3
2024-01-16T08:15:00.537Z,4.1
2024-01-16T08:20:00.452Z,2.1
2024-01-16T08:25:00.449Z,6.6
2024-01-16T08:30:00.521Z,4.0
2024-01-16T08:35:00.554Z,4.1
2024-01-16T08:40:00.478Z,3.9
2024-01-16T08:45:00.619Z,2.2
2024-01-16T08:50:00.467Z,4.9
2024-01-16T08:55:00.472Z,5.5
2024-01-16T09:00:00.532Z,4.8
2024-01-16T09:05:00.623Z,9.5
2024-01-16T09:10:00.463Z,6.2
2024-01-16T09:15:00.496Z,3.6
2024-01-16T09:20:00.468Z,5.6
2024-01-16T09:25:00.466Z,7.8
2024-01-16T09:30:00.527Z,4.5
2024-01-16T09:35:00.477Z,7.0
2024-01-16T09:40:00.451Z,3.7
2024-01-16T09:50:00.451Z,4.7
2024-01-16T09:55:00.441Z,5.8
2024-01-16T10:00:00.590Z,5.4
2024-01-16T10:05:00.438Z,4.4
2024-01-16T10:10:00.447Z,6.6
2024-01-16T10:15:00.528Z,1.9
2024-01-16T10:20:00.568Z,4.5
2024-01-16T10:25:00.448Z,1.7
2024-01-16T10:30:00.769Z,4.0
2024-01-16T10:35:00.566Z,3.0
2024-01-16T10:40:00.462Z,4.4
2024-01-16T10:45:00.457Z,4.4
2024-01-16T10:50:00.518Z,3.9
2024-01-16T10:55:00.457Z,4.1
2024-01-16T11:00:00.549Z,2.7
2024-01-16T11:05:00.465Z,2.9
2024-01-16T11:10:00.464Z,1.7
2024-01-16T11:15:00.506Z,1.8
2024-01-16T11:20:13.669Z,2.6
2024-01-16T11:25:00.458Z,4.0
2024-01-16T11:30:00.713Z,7.5
2024-01-16T11:35:00.555Z,4.7
2024-01-16T11:40:00.568Z,8.3
2024-01-16T11:45:00.621Z,4.8
2024-01-16T11:50:00.440Z,2.0
2024-01-16T11:55:00.443Z,4.3
2024-01-16T12:00:00.624Z,5.2
2024-01-16T12:05:00.451Z,2.3
2024-01-16T12:10:00.452Z,7.0
2024-01-16T12:15:00.542Z,3.1
2024-01-16T12:20:00.670Z,3.7
2024-01-16T12:25:00.451Z,3.6
2024-01-16T12:30:00.453Z,5.9
2024-01-16T12:35:00.656Z,4.8
2024-01-16T12:40:00.489Z,4.7
2024-01-16T12:45:00.764Z,3.9
2024-01-16T12:50:00.586Z,5.0
2024-01-16T12:55:00.450Z,6.1
2024-01-16T13:00:00.635Z,5.4
2024-01-16T13:05:01.199Z,3.7
2024-01-16T13:10:00.461Z,3.5
2024-01-16T13:15:00.520Z,2.9
2024-01-16T13:20:00.460Z,2.5
2024-01-16T13:25:08.590Z,4.0
2024-01-16T13:30:00.600Z,4.0
2024-01-16T13:35:00.440Z,3.5
2024-01-16T13:40:00.458Z,3.9
2024-01-16T13:45:00.638Z,3.6
2024-01-16T13:50:00.564Z,4.8
2024-01-16T13:55:00.437Z,3.9
2024-01-16T14:00:00.728Z,3.4
2024-01-16T14:05:00.550Z,7.0
2024-01-16T14:10:00.457Z,7.5
2024-01-16T14:15:00.509Z,6.1
2024-01-16T14:20:00.470Z,6.0
2024-01-16T14:25:00.451Z,7.8
2024-01-16T14:30:00.628Z,9.3
2024-01-16T14:35:00.444Z,6.8
2024-01-16T14:40:00.440Z,9.2
2024-01-16T14:45:00.509Z,4.5
2024-01-16T14:50:00.455Z,5.9
2024-01-16T14:55:00.445Z,3.9
2024-01-16T15:00:00.695Z,6.1
2024-01-16T15:05:00.458Z,7.3
2024-01-16T15:10:00.440Z,7.8
2024-01-16T15:15:00.659Z,3.8
2024-01-16T15:20:00.514Z,3.9
2024-01-16T15:25:00.475Z,5.4
2024-01-16T15:30:00.560Z,5.7
2024-01-16T15:35:00.514Z,6.6
2024-01-16T15:40:00.468Z,5.0
2024-01-16T15:45:00.525Z,8.1
2024-01-16T15:50:00.471Z,6.7
2024-01-16T15:55:00.464Z,7.2
2024-01-16T16:00:00.787Z,9.4
2024-01-16T16:05:00.440Z,7.3
2024-01-16T16:10:00.440Z,6.1
2024-01-16T16:15:00.546Z,8.7
2024-01-16T16:20:00.480Z,12.4
2024-01-16T16:25:00.439Z,12.9
2024-01-16T16:30:00.790Z,12.7
2024-01-16T16:35:00.445Z,10.0
2024-01-16T16:40:00.465Z,10.2
2024-01-16T16:45:00.630Z,15.4
2024-01-16T16:50:00.469Z,12.9
2024-01-16T16:55:00.465Z,11.1
2024-01-16T17:00:00.911Z,16.2
2024-01-16T17:05:00.608Z,14.5
2024-01-16T17:10:00.467Z,10.0
2024-01-16T17:15:00.532Z,13.4
2024-01-16T17:20:00.453Z,10.0
2024-01-16T17:25:00.449Z,11.3
2024-01-16T17:30:00.776Z,10.3
2024-01-16T17:35:00.448Z,10.4
2024-01-16T17:40:00.666Z,9.8
2024-01-16T17:45:00.658Z,12.4
2024-01-16T17:50:00.477Z,10.7
2024-01-16T17:55:00.461Z,9.2
2024-01-16T18:00:00.651Z,12.5
2024-01-16T18:05:00.469Z,11.3
2024-01-16T18:10:00.505Z,13.2
2024-01-16T18:15:00.537Z,10.1
2024-01-16T18:20:00.451Z,10.7
2024-01-16T18:25:00.454Z,12.9
2024-01-16T18:30:00.726Z,8.8
2024-01-16T18:35:00.443Z,12.4
2024-01-16T18:40:00.445Z,10.8
2024-01-16T18:45:00.575Z,12.3
2024-01-16T18:50:00.460Z,9.3
2024-01-16T18:55:00.449Z,10.0
2024-01-16T19:00:00.620Z,11.3
2024-01-16T19:05:00.551Z,10.6
2024-01-16T19:10:00.474Z,13.1
2024-01-16T19:15:00.485Z,13.0
2024-01-16T19:20:00.471Z,8.8
2024-01-16T19:25:00.440Z,11.9
2024-01-16T19:30:00.686Z,9.4
2024-01-16T19:35:00.455Z,10.4
2024-01-16T19:40:00.461Z,10.9
2024-01-16T19:45:00.524Z,11.0
2024-01-16T19:50:00.484Z,6.8
2024-01-16T19:55:00.457Z,11.5
2024-01-16T20:00:00.661Z,9.2
2024-01-16T20:05:00.475Z,9.0
2024-01-16T20:10:00.453Z,9.5
2024-01-16T20:15:03.748Z,8.6
2024-01-16T20:20:00.475Z,12.9
2024-01-16T20:25:00.442Z,7.7
2024-01-16T20:30:00.775Z,8.7
2024-01-16T20:35:00.552Z,9.4
2024-01-16T20:40:00.455Z,7.4
2024-01-16T20:45:00.715Z,8.6
2024-01-16T20:50:00.467Z,9.2
2024-01-16T20:55:03.529Z,9.9
2024-01-16T21:00:00.568Z,7.6
2024-01-16T21:05:00.788Z,6.8
2024-01-16T21:10:00.455Z,10.6
2024-01-16T21:15:00.700Z,13.0
2024-01-16T21:20:00.461Z,9.1
2024-01-16T21:25:00.453Z,8.7
2024-01-16T21:30:00.649Z,10.1
2024-01-16T21:35:00.462Z,7.0
2024-01-16T21:40:00.444Z,11.5
2024-01-16T21:45:00.670Z,14.4
2024-01-16T21:50:06.413Z,8.3
2024-01-16T21:55:02.522Z,16.2
2024-01-16T22:00:00.672Z,15.6
2024-01-16T22:05:00.656Z,10.5
2024-01-16T22:10:00.443Z,17.9
2024-01-16T22:15:00.548Z,13.2
2024-01-16T22:20:00.552Z,13.5
2024-01-16T22:25:00.446Z,8.6
2024-01-16T22:30:00.660Z,10.6
2024-01-16T22:35:00.458Z,7.9
2024-01-16T22:40:00.520Z,12.1
2024-01-16T22:45:00.529Z,11.6
2024-01-16T22:50:00.470Z,10.0
2024-01-16T22:55:00.445Z,9.0
2024-01-16T23:00:00.829Z,10.7
2024-01-16T23:05:00.459Z,9.2
2024-01-16T23:10:00.448Z,11.4
2024-01-16T23:15:00.646Z,10.8
2024-01-16T23:20:00.485Z,9.3
2024-01-16T23:25:00.448Z,13.7
2024-01-16T23:30:00.625Z,11.3
2024-01-16T23:35:00.458Z,11.3
2024-01-16T23:40:00.460Z,10.5
2024-01-16T23:45:00.620Z,12.6
2024-01-16T23:50:00.694Z,13.6
2024-01-16T23:55:00.448Z,12.0
